sensor_id;sensor_type;location;lat;lon;timestamp;P1;durP1;ratioP1;P2;durP2;ratioP2
76935;SDS011;65881;52.438;16.744;2023-11-19T00:02:20;44.17;;;21.63;;
76935;SDS011;65881;52.438;16.744;2023-11-19T00:04:47;45.72;;;22.02;;
76935;SDS011;65881;52.438;16.744;2023-11-19T00:07:12;44.30;;;23.27;;
76935;SDS011;65881;52.438;16.744;2023-11-19T00:09:39;44.97;;;21.90;;
76935;SDS011;65881;52.438;16.744;2023-11-19T00:12:05;48.45;;;22.45;;
76935;SDS011;65881;52.438;16.744;2023-11-19T00:14:31;50.85;;;25.63;;
76935;SDS011;65881;52.438;16.744;2023-11-19T00:16:57;47.17;;;23.83;;
76935;SDS011;65881;52.438;16.744;2023-11-19T00:19:23;51.30;;;22.42;;
76935;SDS011;65881;52.438;16.744;2023-11-19T00:21:48;51.55;;;25.50;;
76935;SDS011;65881;52.438;16.744;2023-11-19T00:24:14;49.67;;;23.23;;
76935;SDS011;65881;52.438;16.744;2023-11-19T00:26:43;48.92;;;24.48;;
76935;SDS011;65881;52.438;16.744;2023-11-19T00:29:08;52.38;;;24.80;;
76935;SDS011;65881;52.438;16.744;2023-11-19T00:31:34;48.72;;;24.05;;
76935;SDS011;65881;52.438;16.744;2023-11-19T00:34:00;44.60;;;22.40;;
76935;SDS011;65881;52.438;16.744;2023-11-19T00:36:27;49.70;;;25.75;;
76935;SDS011;65881;52.438;16.744;2023-11-19T00:38:53;48.03;;;24.52;;
76935;SDS011;65881;52.438;16.744;2023-11-19T00:41:19;55.50;;;28.02;;
76935;SDS011;65881;52.438;16.744;2023-11-19T00:43:44;51.92;;;24.25;;
76935;SDS011;65881;52.438;16.744;2023-11-19T00:46:10;46.03;;;24.13;;
76935;SDS011;65881;52.438;16.744;2023-11-19T00:48:36;52.25;;;25.75;;
76935;SDS011;65881;52.438;16.744;2023-11-19T00:51:02;48.28;;;24.85;;
76935;SDS011;65881;52.438;16.744;2023-11-19T00:53:29;50.22;;;25.55;;
76935;SDS011;65881;52.438;16.744;2023-11-19T00:55:55;56.70;;;24.23;;
76935;SDS011;65881;52.438;16.744;2023-11-19T00:58:20;46.70;;;23.88;;
76935;SDS011;65881;52.438;16.744;2023-11-19T01:00:46;47.65;;;26.45;;
76935;SDS011;65881;52.438;16.744;2023-11-19T01:03:12;49.58;;;23.08;;
76935;SDS011;65881;52.438;16.744;2023-11-19T01:05:37;53.42;;;25.30;;
76935;SDS011;65881;52.438;16.744;2023-11-19T01:08:04;60.45;;;25.60;;
76935;SDS011;65881;52.438;16.744;2023-11-19T01:10:30;47.20;;;24.27;;
76935;SDS011;65881;52.438;16.744;2023-11-19T01:12:56;50.00;;;25.75;;
76935;SDS011;65881;52.438;16.744;2023-11-19T01:15:22;52.70;;;24.45;;
76935;SDS011;65881;52.438;16.744;2023-11-19T01:17:48;43.95;;;20.98;;
76935;SDS011;65881;52.438;16.744;2023-11-19T01:20:13;51.75;;;23.75;;
76935;SDS011;65881;52.438;16.744;2023-11-19T01:22:39;50.40;;;24.30;;
76935;SDS011;65881;52.438;16.744;2023-11-19T01:25:05;52.75;;;27.10;;
76935;SDS011;65881;52.438;16.744;2023-11-19T01:27:32;46.50;;;25.60;;
76935;SDS011;65881;52.438;16.744;2023-11-19T01:29:59;55.03;;;26.50;;
76935;SDS011;65881;52.438;16.744;2023-11-19T01:32:30;55.17;;;24.55;;
76935;SDS011;65881;52.438;16.744;2023-11-19T01:34:56;48.25;;;23.17;;
76935;SDS011;65881;52.438;16.744;2023-11-19T01:37:22;55.67;;;26.08;;
76935;SDS011;65881;52.438;16.744;2023-11-19T01:39:47;52.17;;;24.75;;
76935;SDS011;65881;52.438;16.744;2023-11-19T01:42:13;50.05;;;23.92;;
76935;SDS011;65881;52.438;16.744;2023-11-19T01:44:39;47.35;;;24.08;;
76935;SDS011;65881;52.438;16.744;2023-11-19T01:47:04;49.58;;;25.02;;
76935;SDS011;65881;52.438;16.744;2023-11-19T01:49:31;57.40;;;27.42;;
76935;SDS011;65881;52.438;16.744;2023-11-19T01:51:58;45.80;;;25.63;;
76935;SDS011;65881;52.438;16.744;2023-11-19T01:54:24;54.45;;;24.45;;
76935;SDS011;65881;52.438;16.744;2023-11-19T01:56:50;46.80;;;23.67;;
76935;SDS011;65881;52.438;16.744;2023-11-19T01:59:17;49.42;;;24.15;;
76935;SDS011;65881;52.438;16.744;2023-11-19T02:01:43;46.38;;;25.38;;
76935;SDS011;65881;52.438;16.744;2023-11-19T02:04:09;49.78;;;22.77;;
76935;SDS011;65881;52.438;16.744;2023-11-19T02:06:40;47.17;;;23.00;;
76935;SDS011;65881;52.438;16.744;2023-11-19T02:09:06;46.50;;;25.63;;
76935;SDS011;65881;52.438;16.744;2023-11-19T02:11:33;51.35;;;23.40;;
76935;SDS011;65881;52.438;16.744;2023-11-19T02:13:59;48.92;;;23.15;;
76935;SDS011;65881;52.438;16.744;2023-11-19T02:16:25;49.42;;;24.25;;
76935;SDS011;65881;52.438;16.744;2023-11-19T02:18:51;46.72;;;25.05;;
76935;SDS011;65881;52.438;16.744;2023-11-19T02:21:16;60.70;;;25.35;;
76935;SDS011;65881;52.438;16.744;2023-11-19T02:23:43;48.33;;;20.92;;
76935;SDS011;65881;52.438;16.744;2023-11-19T02:28:38;52.95;;;24.45;;
76935;SDS011;65881;52.438;16.744;2023-11-19T02:31:05;43.97;;;22.77;;
76935;SDS011;65881;52.438;16.744;2023-11-19T02:33:34;50.15;;;23.40;;
76935;SDS011;65881;52.438;16.744;2023-11-19T02:36:04;52.95;;;23.98;;
76935;SDS011;65881;52.438;16.744;2023-11-19T02:38:31;47.75;;;25.15;;
76935;SDS011;65881;52.438;16.744;2023-11-19T02:40:58;48.50;;;22.70;;
76935;SDS011;65881;52.438;16.744;2023-11-19T02:43:23;56.55;;;25.33;;
76935;SDS011;65881;52.438;16.744;2023-11-19T02:45:49;55.90;;;25.08;;
76935;SDS011;65881;52.438;16.744;2023-11-19T02:48:15;56.58;;;26.63;;
76935;SDS011;65881;52.438;16.744;2023-11-19T02:50:44;55.60;;;24.63;;
76935;SDS011;65881;52.438;16.744;2023-11-19T02:53:10;53.70;;;25.05;;
76935;SDS011;65881;52.438;16.744;2023-11-19T02:55:37;51.25;;;24.48;;
76935;SDS011;65881;52.438;16.744;2023-11-19T02:58:05;50.50;;;22.65;;
76935;SDS011;65881;52.438;16.744;2023-11-19T03:00:44;46.55;;;27.02;;
76935;SDS011;65881;52.438;16.744;2023-11-19T03:03:19;53.72;;;26.60;;
76935;SDS011;65881;52.438;16.744;2023-11-19T03:05:47;47.58;;;25.23;;
76935;SDS011;65881;52.438;16.744;2023-11-19T03:08:16;56.08;;;26.48;;
76935;SDS011;65881;52.438;16.744;2023-11-19T03:10:41;49.30;;;25.05;;
76935;SDS011;65881;52.438;16.744;2023-11-19T03:13:10;53.88;;;27.40;;
76935;SDS011;65881;52.438;16.744;2023-11-19T03:15:38;49.45;;;27.40;;
76935;SDS011;65881;52.438;16.744;2023-11-19T03:18:04;59.63;;;27.15;;
76935;SDS011;65881;52.438;16.744;2023-11-19T03:20:30;61.35;;;26.92;;
76935;SDS011;65881;52.438;16.744;2023-11-19T03:22:56;55.10;;;28.30;;
76935;SDS011;65881;52.438;16.744;2023-11-19T03:25:26;55.30;;;27.38;;
76935;SDS011;65881;52.438;16.744;2023-11-19T03:27:58;51.75;;;25.60;;
76935;SDS011;65881;52.438;16.744;2023-11-19T03:30:23;51.70;;;26.40;;
76935;SDS011;65881;52.438;16.744;2023-11-19T03:32:49;55.75;;;26.08;;
76935;SDS011;65881;52.438;16.744;2023-11-19T03:35:15;54.35;;;27.20;;
76935;SDS011;65881;52.438;16.744;2023-11-19T03:37:41;53.75;;;26.45;;
76935;SDS011;65881;52.438;16.744;2023-11-19T03:40:07;56.88;;;27.55;;
76935;SDS011;65881;52.438;16.744;2023-11-19T03:42:33;51.63;;;24.70;;
76935;SDS011;65881;52.438;16.744;2023-11-19T03:44:59;54.90;;;28.20;;
76935;SDS011;65881;52.438;16.744;2023-11-19T03:47:24;52.20;;;25.90;;
76935;SDS011;65881;52.438;16.744;2023-11-19T03:49:50;52.53;;;25.55;;
76935;SDS011;65881;52.438;16.744;2023-11-19T03:52:19;48.83;;;24.40;;
76935;SDS011;65881;52.438;16.744;2023-11-19T03:54:45;60.13;;;27.65;;
76935;SDS011;65881;52.438;16.744;2023-11-19T03:57:11;59.65;;;26.88;;
76935;SDS011;65881;52.438;16.744;2023-11-19T03:59:37;50.15;;;28.00;;
76935;SDS011;65881;52.438;16.744;2023-11-19T04:02:03;59.25;;;27.42;;
76935;SDS011;65881;52.438;16.744;2023-11-19T04:04:28;48.83;;;24.42;;
76935;SDS011;65881;52.438;16.744;2023-11-19T04:06:54;57.40;;;26.92;;
76935;SDS011;65881;52.438;16.744;2023-11-19T04:09:21;58.15;;;26.63;;
76935;SDS011;65881;52.438;16.744;2023-11-19T04:11:47;57.00;;;26.40;;
76935;SDS011;65881;52.438;16.744;2023-11-19T04:14:13;55.83;;;26.25;;
76935;SDS011;65881;52.438;16.744;2023-11-19T04:16:39;48.30;;;26.98;;
76935;SDS011;65881;52.438;16.744;2023-11-19T04:19:05;55.30;;;24.52;;
76935;SDS011;65881;52.438;16.744;2023-11-19T04:21:31;52.55;;;24.92;;
76935;SDS011;65881;52.438;16.744;2023-11-19T04:23:57;52.42;;;26.60;;
76935;SDS011;65881;52.438;16.744;2023-11-19T04:26:23;57.28;;;25.30;;
76935;SDS011;65881;52.438;16.744;2023-11-19T04:28:48;57.70;;;27.30;;
76935;SDS011;65881;52.438;16.744;2023-11-19T04:31:14;57.58;;;25.80;;
76935;SDS011;65881;52.438;16.744;2023-11-19T04:33:41;54.72;;;26.40;;
76935;SDS011;65881;52.438;16.744;2023-11-19T04:36:07;55.85;;;24.50;;
76935;SDS011;65881;52.438;16.744;2023-11-19T04:38:33;55.25;;;25.23;;
76935;SDS011;65881;52.438;16.744;2023-11-19T04:40:59;49.47;;;23.92;;
76935;SDS011;65881;52.438;16.744;2023-11-19T04:43:25;53.58;;;26.83;;
76935;SDS011;65881;52.438;16.744;2023-11-19T04:45:51;54.78;;;25.33;;
76935;SDS011;65881;52.438;16.744;2023-11-19T04:48:16;56.97;;;26.00;;
76935;SDS011;65881;52.438;16.744;2023-11-19T04:50:42;48.80;;;26.30;;
76935;SDS011;65881;52.438;16.744;2023-11-19T04:53:08;46.83;;;23.98;;
76935;SDS011;65881;52.438;16.744;2023-11-19T04:55:33;49.20;;;22.13;;
76935;SDS011;65881;52.438;16.744;2023-11-19T04:57:59;50.30;;;25.67;;
76935;SDS011;65881;52.438;16.744;2023-11-19T05:00:25;45.40;;;21.80;;
76935;SDS011;65881;52.438;16.744;2023-11-19T05:02:50;41.03;;;22.92;;
76935;SDS011;65881;52.438;16.744;2023-11-19T05:05:16;48.05;;;24.35;;
76935;SDS011;65881;52.438;16.744;2023-11-19T05:07:42;45.70;;;22.90;;
76935;SDS011;65881;52.438;16.744;2023-11-19T05:10:08;41.80;;;21.50;;
76935;SDS011;65881;52.438;16.744;2023-11-19T05:12:34;44.92;;;24.27;;
76935;SDS011;65881;52.438;16.744;2023-11-19T05:14:59;53.33;;;23.75;;
76935;SDS011;65881;52.438;16.744;2023-11-19T05:17:25;49.95;;;25.08;;
76935;SDS011;65881;52.438;16.744;2023-11-19T05:19:51;41.20;;;23.38;;
76935;SDS011;65881;52.438;16.744;2023-11-19T05:22:17;49.33;;;23.65;;
76935;SDS011;65881;52.438;16.744;2023-11-19T05:24:42;40.88;;;21.05;;
76935;SDS011;65881;52.438;16.744;2023-11-19T05:27:08;41.25;;;20.50;;
76935;SDS011;65881;52.438;16.744;2023-11-19T05:29:36;40.67;;;21.52;;
76935;SDS011;65881;52.438;16.744;2023-11-19T05:32:04;42.97;;;20.63;;
76935;SDS011;65881;52.438;16.744;2023-11-19T05:34:30;44.42;;;22.67;;
76935;SDS011;65881;52.438;16.744;2023-11-19T05:36:56;44.88;;;21.45;;
76935;SDS011;65881;52.438;16.744;2023-11-19T05:39:22;36.83;;;21.67;;
76935;SDS011;65881;52.438;16.744;2023-11-19T05:41:48;42.03;;;19.63;;
76935;SDS011;65881;52.438;16.744;2023-11-19T05:44:13;48.25;;;21.83;;
76935;SDS011;65881;52.438;16.744;2023-11-19T05:46:39;40.05;;;20.17;;
76935;SDS011;65881;52.438;16.744;2023-11-19T05:49:07;39.47;;;20.15;;
76935;SDS011;65881;52.438;16.744;2023-11-19T05:51:36;41.35;;;19.08;;
76935;SDS011;65881;52.438;16.744;2023-11-19T05:54:08;41.65;;;22.33;;
76935;SDS011;65881;52.438;16.744;2023-11-19T05:56:35;40.47;;;20.45;;
76935;SDS011;65881;52.438;16.744;2023-11-19T05:59:01;41.58;;;20.20;;
76935;SDS011;65881;52.438;16.744;2023-11-19T06:01:39;42.65;;;22.80;;
76935;SDS011;65881;52.438;16.744;2023-11-19T06:04:06;38.25;;;19.80;;
76935;SDS011;65881;52.438;16.744;2023-11-19T06:06:32;33.15;;;18.60;;
76935;SDS011;65881;52.438;16.744;2023-11-19T06:08:58;41.22;;;18.85;;
76935;SDS011;65881;52.438;16.744;2023-11-19T06:11:24;37.80;;;18.30;;
76935;SDS011;65881;52.438;16.744;2023-11-19T06:13:51;38.20;;;19.85;;
76935;SDS011;65881;52.438;16.744;2023-11-19T06:16:17;38.80;;;20.63;;
76935;SDS011;65881;52.438;16.744;2023-11-19T06:18:43;39.45;;;18.55;;
76935;SDS011;65881;52.438;16.744;2023-11-19T06:21:09;34.72;;;17.30;;
76935;SDS011;65881;52.438;16.744;2023-11-19T06:23:35;44.45;;;19.58;;
76935;SDS011;65881;52.438;16.744;2023-11-19T06:26:00;36.03;;;17.77;;
76935;SDS011;65881;52.438;16.744;2023-11-19T06:28:26;41.80;;;20.55;;
76935;SDS011;65881;52.438;16.744;2023-11-19T06:30:52;36.30;;;18.77;;
76935;SDS011;65881;52.438;16.744;2023-11-19T06:33:18;37.58;;;18.98;;
76935;SDS011;65881;52.438;16.744;2023-11-19T06:35:43;34.53;;;20.05;;
76935;SDS011;65881;52.438;16.744;2023-11-19T06:38:10;38.65;;;20.58;;
76935;SDS011;65881;52.438;16.744;2023-11-19T06:40:35;36.70;;;17.92;;
76935;SDS011;65881;52.438;16.744;2023-11-19T06:43:01;34.42;;;18.27;;
76935;SDS011;65881;52.438;16.744;2023-11-19T06:45:28;36.03;;;19.05;;
76935;SDS011;65881;52.438;16.744;2023-11-19T06:47:54;34.03;;;16.65;;
76935;SDS011;65881;52.438;16.744;2023-11-19T06:50:20;34.67;;;19.83;;
76935;SDS011;65881;52.438;16.744;2023-11-19T06:52:46;37.15;;;17.83;;
76935;SDS011;65881;52.438;16.744;2023-11-19T06:55:12;38.05;;;19.65;;
76935;SDS011;65881;52.438;16.744;2023-11-19T06:57:37;35.60;;;18.77;;
76935;SDS011;65881;52.438;16.744;2023-11-19T07:00:04;37.10;;;18.48;;
76935;SDS011;65881;52.438;16.744;2023-11-19T07:02:30;39.25;;;17.42;;
76935;SDS011;65881;52.438;16.744;2023-11-19T07:04:56;33.85;;;17.67;;
76935;SDS011;65881;52.438;16.744;2023-11-19T07:07:22;37.75;;;18.27;;
76935;SDS011;65881;52.438;16.744;2023-11-19T07:09:48;43.05;;;21.67;;
76935;SDS011;65881;52.438;16.744;2023-11-19T07:12:13;44.20;;;20.65;;
76935;SDS011;65881;52.438;16.744;2023-11-19T07:14:39;35.38;;;17.70;;
76935;SDS011;65881;52.438;16.744;2023-11-19T07:17:05;35.83;;;18.48;;
76935;SDS011;65881;52.438;16.744;2023-11-19T07:19:31;30.88;;;16.10;;
76935;SDS011;65881;52.438;16.744;2023-11-19T07:21:56;37.20;;;19.85;;
76935;SDS011;65881;52.438;16.744;2023-11-19T07:24:22;33.35;;;17.90;;
76935;SDS011;65881;52.438;16.744;2023-11-19T07:26:48;38.03;;;18.90;;
76935;SDS011;65881;52.438;16.744;2023-11-19T07:29:14;37.92;;;18.23;;
76935;SDS011;65881;52.438;16.744;2023-11-19T07:31:42;34.13;;;18.63;;
76935;SDS011;65881;52.438;16.744;2023-11-19T07:34:11;35.75;;;17.33;;
76935;SDS011;65881;52.438;16.744;2023-11-19T07:36:37;36.75;;;18.30;;
76935;SDS011;65881;52.438;16.744;2023-11-19T07:39:03;35.42;;;18.67;;
76935;SDS011;65881;52.438;16.744;2023-11-19T07:41:30;36.97;;;18.13;;
76935;SDS011;65881;52.438;16.744;2023-11-19T07:43:56;34.22;;;19.20;;
76935;SDS011;65881;52.438;16.744;2023-11-19T07:46:21;37.10;;;18.95;;
76935;SDS011;65881;52.438;16.744;2023-11-19T07:48:47;41.50;;;19.20;;
76935;SDS011;65881;52.438;16.744;2023-11-19T07:51:13;36.45;;;18.05;;
76935;SDS011;65881;52.438;16.744;2023-11-19T07:53:39;39.95;;;20.75;;
76935;SDS011;65881;52.438;16.744;2023-11-19T07:56:05;32.65;;;18.00;;
76935;SDS011;65881;52.438;16.744;2023-11-19T07:58:32;38.20;;;17.25;;
76935;SDS011;65881;52.438;16.744;2023-11-19T08:00:58;34.33;;;17.85;;
76935;SDS011;65881;52.438;16.744;2023-11-19T08:03:23;35.10;;;18.23;;
76935;SDS011;65881;52.438;16.744;2023-11-19T08:05:49;34.90;;;18.00;;
76935;SDS011;65881;52.438;16.744;2023-11-19T08:08:15;39.10;;;17.70;;
76935;SDS011;65881;52.438;16.744;2023-11-19T08:10:41;35.03;;;17.50;;
76935;SDS011;65881;52.438;16.744;2023-11-19T08:13:08;36.85;;;16.70;;
76935;SDS011;65881;52.438;16.744;2023-11-19T08:15:34;35.47;;;16.50;;
76935;SDS011;65881;52.438;16.744;2023-11-19T08:17:59;31.35;;;17.05;;
76935;SDS011;65881;52.438;16.744;2023-11-19T08:20:25;35.45;;;15.60;;
76935;SDS011;65881;52.438;16.744;2023-11-19T08:22:50;35.08;;;16.85;;
76935;SDS011;65881;52.438;16.744;2023-11-19T08:25:16;33.35;;;15.13;;
76935;SDS011;65881;52.438;16.744;2023-11-19T08:27:42;32.25;;;15.70;;
76935;SDS011;65881;52.438;16.744;2023-11-19T08:30:08;37.70;;;17.77;;
76935;SDS011;65881;52.438;16.744;2023-11-19T08:32:34;28.02;;;15.32;;
76935;SDS011;65881;52.438;16.744;2023-11-19T08:34:59;28.35;;;15.02;;
76935;SDS011;65881;52.438;16.744;2023-11-19T08:37:25;31.13;;;14.90;;
76935;SDS011;65881;52.438;16.744;2023-11-19T08:39:50;33.90;;;17.45;;
76935;SDS011;65881;52.438;16.744;2023-11-19T08:42:17;39.47;;;18.42;;
76935;SDS011;65881;52.438;16.744;2023-11-19T08:44:42;28.58;;;15.57;;
76935;SDS011;65881;52.438;16.744;2023-11-19T08:47:12;33.30;;;17.60;;
76935;SDS011;65881;52.438;16.744;2023-11-19T08:49:41;26.98;;;15.98;;
76935;SDS011;65881;52.438;16.744;2023-11-19T08:52:06;29.20;;;15.63;;
76935;SDS011;65881;52.438;16.744;2023-11-19T08:54:36;32.03;;;17.50;;
76935;SDS011;65881;52.438;16.744;2023-11-19T08:57:02;37.78;;;17.33;;
76935;SDS011;65881;52.438;16.744;2023-11-19T08:59:29;26.00;;;15.30;;
76935;SDS011;65881;52.438;16.744;2023-11-19T09:01:55;34.42;;;15.68;;
76935;SDS011;65881;52.438;16.744;2023-11-19T09:04:20;34.65;;;15.60;;
76935;SDS011;65881;52.438;16.744;2023-11-19T09:06:49;30.85;;;15.70;;
76935;SDS011;65881;52.438;16.744;2023-11-19T09:09:14;34.88;;;16.48;;
76935;SDS011;65881;52.438;16.744;2023-11-19T09:11:40;30.63;;;16.13;;
76935;SDS011;65881;52.438;16.744;2023-11-19T09:14:06;30.35;;;16.48;;
76935;SDS011;65881;52.438;16.744;2023-11-19T09:16:31;31.85;;;16.52;;
76935;SDS011;65881;52.438;16.744;2023-11-19T09:18:57;33.22;;;16.35;;
76935;SDS011;65881;52.438;16.744;2023-11-19T09:21:25;34.95;;;18.17;;
76935;SDS011;65881;52.438;16.744;2023-11-19T09:23:54;31.10;;;15.38;;
76935;SDS011;65881;52.438;16.744;2023-11-19T09:26:20;35.33;;;16.92;;
76935;SDS011;65881;52.438;16.744;2023-11-19T09:28:46;28.80;;;15.75;;
76935;SDS011;65881;52.438;16.744;2023-11-19T09:31:18;31.65;;;17.23;;
76935;SDS011;65881;52.438;16.744;2023-11-19T09:33:43;30.60;;;16.50;;
76935;SDS011;65881;52.438;16.744;2023-11-19T09:36:11;31.98;;;16.98;;
76935;SDS011;65881;52.438;16.744;2023-11-19T09:38:38;30.15;;;17.50;;
76935;SDS011;65881;52.438;16.744;2023-11-19T09:41:04;35.28;;;17.20;;
76935;SDS011;65881;52.438;16.744;2023-11-19T09:43:35;37.90;;;17.80;;
76935;SDS011;65881;52.438;16.744;2023-11-19T09:46:06;31.83;;;17.13;;
76935;SDS011;65881;52.438;16.744;2023-11-19T09:48:36;31.23;;;16.33;;
76935;SDS011;65881;52.438;16.744;2023-11-19T09:51:03;28.95;;;15.07;;
76935;SDS011;65881;52.438;16.744;2023-11-19T09:53:30;27.15;;;15.32;;
76935;SDS011;65881;52.438;16.744;2023-11-19T09:55:56;29.10;;;14.38;;
76935;SDS011;65881;52.438;16.744;2023-11-19T09:58:24;32.85;;;15.85;;
76935;SDS011;65881;52.438;16.744;2023-11-19T10:00:51;26.45;;;15.07;;
76935;SDS011;65881;52.438;16.744;2023-11-19T10:03:19;25.27;;;13.25;;
76935;SDS011;65881;52.438;16.744;2023-11-19T10:06:04;33.38;;;16.42;;
76935;SDS011;65881;52.438;16.744;2023-11-19T10:08:32;28.45;;;14.20;;
76935;SDS011;65881;52.438;16.744;2023-11-19T10:10:58;33.47;;;16.80;;
76935;SDS011;65881;52.438;16.744;2023-11-19T10:13:27;27.50;;;15.77;;
76935;SDS011;65881;52.438;16.744;2023-11-19T10:15:54;29.98;;;17.08;;
76935;SDS011;65881;52.438;16.744;2023-11-19T10:18:27;28.00;;;14.75;;
76935;SDS011;65881;52.438;16.744;2023-11-19T10:20:52;26.10;;;15.73;;
76935;SDS011;65881;52.438;16.744;2023-11-19T10:23:19;28.25;;;13.75;;
76935;SDS011;65881;52.438;16.744;2023-11-19T10:25:45;26.23;;;15.13;;
76935;SDS011;65881;52.438;16.744;2023-11-19T10:28:11;25.55;;;14.80;;
76935;SDS011;65881;52.438;16.744;2023-11-19T10:30:39;26.77;;;15.43;;
76935;SDS011;65881;52.438;16.744;2023-11-19T10:33:07;30.67;;;17.20;;
76935;SDS011;65881;52.438;16.744;2023-11-19T10:35:50;25.30;;;14.52;;
76935;SDS011;65881;52.438;16.744;2023-11-19T10:38:21;27.25;;;15.77;;
76935;SDS011;65881;52.438;16.744;2023-11-19T10:40:47;21.40;;;12.90;;
76935;SDS011;65881;52.438;16.744;2023-11-19T10:43:14;26.70;;;15.75;;
76935;SDS011;65881;52.438;16.744;2023-11-19T10:45:40;26.00;;;15.32;;
76935;SDS011;65881;52.438;16.744;2023-11-19T10:48:06;26.20;;;15.18;;
76935;SDS011;65881;52.438;16.744;2023-11-19T10:50:35;22.88;;;15.45;;
76935;SDS011;65881;52.438;16.744;2023-11-19T10:53:02;29.13;;;15.35;;
76935;SDS011;65881;52.438;16.744;2023-11-19T10:55:29;24.50;;;12.05;;
76935;SDS011;65881;52.438;16.744;2023-11-19T10:58:00;23.00;;;13.10;;
76935;SDS011;65881;52.438;16.744;2023-11-19T11:00:39;24.58;;;14.10;;
76935;SDS011;65881;52.438;16.744;2023-11-19T11:03:11;26.30;;;12.13;;
76935;SDS011;65881;52.438;16.744;2023-11-19T11:05:42;24.08;;;13.52;;
76935;SDS011;65881;52.438;16.744;2023-11-19T11:08:08;21.50;;;12.15;;
76935;SDS011;65881;52.438;16.744;2023-11-19T11:10:38;24.40;;;14.35;;
76935;SDS011;65881;52.438;16.744;2023-11-19T11:13:07;21.38;;;14.05;;
76935;SDS011;65881;52.438;16.744;2023-11-19T11:15:33;22.27;;;13.30;;
76935;SDS011;65881;52.438;16.744;2023-11-19T11:18:00;27.27;;;15.52;;
76935;SDS011;65881;52.438;16.744;2023-11-19T11:20:28;20.40;;;13.65;;
76935;SDS011;65881;52.438;16.744;2023-11-19T11:26:32;25.35;;;13.98;;
76935;SDS011;65881;52.438;16.744;2023-11-19T11:28:54;26.10;;;13.68;;
76935;SDS011;65881;52.438;16.744;2023-11-19T11:39:35;28.05;;;16.85;;
76935;SDS011;65881;52.438;16.744;2023-11-19T11:45:02;31.13;;;14.98;;
76935;SDS011;65881;52.438;16.744;2023-11-19T11:55:27;32.78;;;18.92;;
76935;SDS011;65881;52.438;16.744;2023-11-19T11:57:54;33.30;;;18.50;;
76935;SDS011;65881;52.438;16.744;2023-11-19T12:00:26;33.85;;;17.45;;
76935;SDS011;65881;52.438;16.744;2023-11-19T12:02:56;33.47;;;17.55;;
76935;SDS011;65881;52.438;16.744;2023-11-19T12:05:23;30.38;;;17.92;;
76935;SDS011;65881;52.438;16.744;2023-11-19T12:07:55;34.40;;;19.85;;
76935;SDS011;65881;52.438;16.744;2023-11-19T12:10:24;33.00;;;16.83;;
76935;SDS011;65881;52.438;16.744;2023-11-19T12:12:52;34.35;;;18.52;;
76935;SDS011;65881;52.438;16.744;2023-11-19T12:15:18;34.80;;;19.42;;
76935;SDS011;65881;52.438;16.744;2023-11-19T12:17:50;34.55;;;17.10;;
76935;SDS011;65881;52.438;16.744;2023-11-19T12:20:17;36.58;;;18.05;;
76935;SDS011;65881;52.438;16.744;2023-11-19T12:22:44;37.40;;;18.30;;
76935;SDS011;65881;52.438;16.744;2023-11-19T12:25:11;30.10;;;17.13;;
76935;SDS011;65881;52.438;16.744;2023-11-19T12:27:41;33.45;;;18.30;;
76935;SDS011;65881;52.438;16.744;2023-11-19T12:30:08;28.45;;;18.05;;
76935;SDS011;65881;52.438;16.744;2023-11-19T12:32:41;42.08;;;23.00;;
76935;SDS011;65881;52.438;16.744;2023-11-19T12:35:08;35.10;;;18.25;;
76935;SDS011;65881;52.438;16.744;2023-11-19T12:37:41;35.72;;;18.50;;
76935;SDS011;65881;52.438;16.744;2023-11-19T12:40:18;35.53;;;18.63;;
76935;SDS011;65881;52.438;16.744;2023-11-19T12:42:49;30.15;;;17.05;;
76935;SDS011;65881;52.438;16.744;2023-11-19T12:45:15;33.83;;;16.25;;
76935;SDS011;65881;52.438;16.744;2023-11-19T12:47:42;36.90;;;21.65;;
76935;SDS011;65881;52.438;16.744;2023-11-19T12:50:12;34.15;;;19.10;;
76935;SDS011;65881;52.438;16.744;2023-11-19T12:52:38;34.58;;;17.73;;
76935;SDS011;65881;52.438;16.744;2023-11-19T12:55:05;37.00;;;18.85;;
76935;SDS011;65881;52.438;16.744;2023-11-19T12:57:48;35.00;;;16.88;;
76935;SDS011;65881;52.438;16.744;2023-11-19T13:00:18;34.28;;;17.70;;
76935;SDS011;65881;52.438;16.744;2023-11-19T13:02:50;27.75;;;19.20;;
76935;SDS011;65881;52.438;16.744;2023-11-19T13:07:51;29.15;;;17.60;;
76935;SDS011;65881;52.438;16.744;2023-11-19T13:10:23;38.35;;;18.98;;
76935;SDS011;65881;52.438;16.744;2023-11-19T13:15:30;31.98;;;18.20;;
76935;SDS011;65881;52.438;16.744;2023-11-19T13:17:57;32.72;;;19.05;;
76935;SDS011;65881;52.438;16.744;2023-11-19T13:20:23;33.40;;;17.75;;
76935;SDS011;65881;52.438;16.744;2023-11-19T13:22:55;36.60;;;19.17;;
76935;SDS011;65881;52.438;16.744;2023-11-19T13:25:24;32.95;;;19.33;;
76935;SDS011;65881;52.438;16.744;2023-11-19T13:27:51;35.88;;;18.60;;
76935;SDS011;65881;52.438;16.744;2023-11-19T13:30:17;36.75;;;19.17;;
76935;SDS011;65881;52.438;16.744;2023-11-19T13:32:43;35.17;;;16.73;;
76935;SDS011;65881;52.438;16.744;2023-11-19T13:35:11;39.53;;;18.83;;
76935;SDS011;65881;52.438;16.744;2023-11-19T13:37:37;43.95;;;20.30;;
76935;SDS011;65881;52.438;16.744;2023-11-19T13:40:03;40.78;;;20.05;;
76935;SDS011;65881;52.438;16.744;2023-11-19T13:42:30;35.67;;;19.02;;
76935;SDS011;65881;52.438;16.744;2023-11-19T13:44:55;36.58;;;22.10;;
76935;SDS011;65881;52.438;16.744;2023-11-19T13:47:21;37.22;;;18.25;;
76935;SDS011;65881;52.438;16.744;2023-11-19T13:49:47;41.60;;;19.80;;
76935;SDS011;65881;52.438;16.744;2023-11-19T13:52:12;48.85;;;22.50;;
76935;SDS011;65881;52.438;16.744;2023-11-19T13:54:38;39.05;;;21.45;;
76935;SDS011;65881;52.438;16.744;2023-11-19T13:57:06;39.88;;;21.27;;
76935;SDS011;65881;52.438;16.744;2023-11-19T13:59:31;44.60;;;21.15;;
76935;SDS011;65881;52.438;16.744;2023-11-19T14:01:57;38.17;;;21.90;;
76935;SDS011;65881;52.438;16.744;2023-11-19T14:04:23;39.42;;;23.52;;
76935;SDS011;65881;52.438;16.744;2023-11-19T14:06:49;44.05;;;21.42;;
76935;SDS011;65881;52.438;16.744;2023-11-19T14:09:15;39.28;;;21.02;;
76935;SDS011;65881;52.438;16.744;2023-11-19T14:11:42;37.55;;;21.63;;
76935;SDS011;65881;52.438;16.744;2023-11-19T14:14:08;43.70;;;23.10;;
76935;SDS011;65881;52.438;16.744;2023-11-19T14:16:34;45.13;;;23.38;;
76935;SDS011;65881;52.438;16.744;2023-11-19T14:19:00;46.80;;;22.25;;
76935;SDS011;65881;52.438;16.744;2023-11-19T14:21:25;44.40;;;24.98;;
76935;SDS011;65881;52.438;16.744;2023-11-19T14:23:52;51.75;;;25.00;;
76935;SDS011;65881;52.438;16.744;2023-11-19T14:26:18;49.90;;;24.98;;
76935;SDS011;65881;52.438;16.744;2023-11-19T14:28:44;49.47;;;25.65;;
76935;SDS011;65881;52.438;16.744;2023-11-19T14:31:09;52.42;;;27.15;;
76935;SDS011;65881;52.438;16.744;2023-11-19T14:33:35;50.15;;;25.98;;
76935;SDS011;65881;52.438;16.744;2023-11-19T14:36:03;54.58;;;27.33;;
76935;SDS011;65881;52.438;16.744;2023-11-19T14:38:29;50.08;;;26.08;;